createdAt,value
2019-04-26T00:02:25.189Z,8.67
2019-04-26T00:07:30.810Z,8.74
2019-04-26T00:12:45.120Z,8.75
2019-04-26T00:17:54.734Z,8.76
2019-04-26T00:23:00.241Z,8.76
2019-04-26T00:28:05.686Z,8.74
2019-04-26T00:33:12.398Z,8.78
2019-04-26T00:38:18.292Z,8.79
2019-04-26T00:43:24.972Z,8.84
2019-04-26T00:48:32.577Z,8.89
2019-04-26T00:53:39.694Z,8.92
2019-04-26T00:58:45.341Z,8.92
2019-04-26T01:03:50.924Z,9.04
2019-04-26T01:08:56.233Z,9.25
2019-04-26T01:14:01.714Z,9.42
2019-04-26T01:19:08.900Z,9.53
2019-04-26T01:24:18.253Z,9.55
2019-04-26T01:29:26.382Z,9.62
2019-04-26T01:34:33.613Z,9.62
2019-04-26T01:39:41.782Z,9.67
2019-04-26T01:45:01.203Z,9.73
2019-04-26T01:50:07.761Z,9.79
2019-04-26T01:55:13.851Z,9.79
2019-04-26T02:00:28.073Z,9.73
2019-04-26T02:05:33.691Z,9.73
2019-04-26T02:10:39.302Z,9.76
2019-04-26T02:15:44.742Z,9.80
2019-04-26T02:20:57.542Z,9.81
2019-04-26T02:26:12.001Z,9.80
2019-04-26T02:31:17.728Z,9.83
2019-04-26T02:36:25.362Z,9.87
2019-04-26T02:41:33.493Z,9.91
2019-04-26T02:46:50.822Z,9.77
2019-04-26T02:52:03.924Z,9.71
2019-04-26T02:57:09.502Z,9.70
2019-04-26T03:02:21.913Z,9.70
2019-04-26T03:07:44.213Z,9.70
2019-04-26T03:12:52.850Z,9.71
2019-04-26T03:18:11.053Z,9.73
2019-04-26T03:23:41.811Z,9.78
2019-04-26T03:28:44.483Z,9.89
2019-04-26T03:34:01.788Z,10.00
2019-04-26T03:39:23.032Z,10.22
2019-04-26T03:44:38.996Z,10.18
2019-04-26T03:49:57.912Z,10.10
2019-04-26T03:55:08.743Z,10.02
2019-04-26T04:00:26.203Z,9.73
2019-04-26T04:05:44.196Z,9.73
2019-04-26T04:10:55.841Z,9.80
2019-04-26T04:16:01.965Z,9.83
2019-04-26T04:21:22.433Z,9.89
2019-04-26T04:26:39.603Z,9.85
2019-04-26T04:31:49.344Z,9.86
2019-04-26T04:36:57.873Z,9.81
2019-04-26T04:42:22.444Z,9.81
2019-04-26T04:47:37.164Z,9.89
2019-04-26T04:52:51.765Z,9.86
2019-04-26T04:58:06.093Z,9.88
2019-04-26T05:03:28.623Z,9.91
2019-04-26T05:08:51.182Z,9.67
2019-04-26T05:14:04.423Z,9.52
2019-04-26T05:19:27.097Z,9.61
2019-04-26T05:24:40.461Z,9.66
2019-04-26T05:29:56.155Z,9.72
2019-04-26T05:35:12.518Z,9.74
2019-04-26T05:40:35.273Z,9.68
2019-04-26T05:46:04.153Z,9.72
2019-04-26T05:51:34.236Z,9.72
2019-04-26T05:57:02.715Z,9.89
2019-04-26T06:02:32.041Z,9.91
2019-04-26T06:07:58.528Z,9.89
2019-04-26T06:13:28.003Z,9.71
2019-04-26T06:18:47.873Z,9.63
2019-04-26T06:24:07.052Z,9.53
2019-04-26T06:29:20.230Z,9.50
2019-04-26T06:34:39.344Z,9.50
2019-04-26T06:40:02.853Z,9.50
2019-04-26T06:45:30.983Z,9.50
2019-04-26T06:50:44.372Z,9.55
2019-04-26T06:56:03.014Z,9.43
2019-04-26T07:01:25.946Z,9.30
2019-04-26T07:06:38.810Z,9.19
2019-04-26T07:12:05.774Z,9.31
2019-04-26T07:17:17.672Z,9.41
2019-04-26T07:22:41.370Z,9.34
2019-04-26T07:28:03.850Z,9.14
2019-04-26T07:33:19.978Z,9.19
2019-04-26T07:38:54.636Z,9.27
2019-04-26T07:44:20.901Z,9.34
2019-04-26T07:49:53.552Z,9.56
2019-04-26T07:55:26.433Z,9.67
2019-04-26T08:00:44.990Z,9.84
2019-04-26T08:06:01.581Z,10.13
2019-04-26T08:11:12.951Z,9.72
2019-04-26T08:16:30.540Z,9.50
2019-04-26T08:21:42.609Z,9.79
2019-04-26T08:26:55.084Z,10.04
2019-04-26T08:32:05.413Z,9.85
2019-04-26T08:37:19.669Z,9.76
2019-04-26T08:42:30.533Z,9.88
2019-04-26T08:47:45.977Z,9.89
2019-04-26T08:52:57.876Z,10.18
2019-04-26T08:58:08.160Z,10.52
2019-04-26T09:03:25.678Z,10.68
2019-04-26T09:08:39.163Z,11.43
2019-04-26T09:13:49.871Z,12.18
2019-04-26T09:18:59.439Z,13.12
2019-04-26T09:24:10.190Z,11.61
2019-04-26T09:29:30.527Z,11.88
2019-04-26T09:34:36.623Z,12.00
2019-04-26T09:39:43.411Z,11.96
2019-04-26T09:44:57.037Z,12.60
2019-04-26T09:50:11.346Z,13.17
2019-04-26T09:55:17.803Z,13.21
2019-04-26T10:00:27.851Z,13.94
2019-04-26T10:05:34.030Z,14.26
2019-04-26T10:10:39.772Z,13.23
2019-04-26T10:15:58.057Z,11.59
2019-04-26T10:21:01.475Z,10.64
2019-04-26T10:26:07.296Z,10.68
2019-04-26T10:31:13.537Z,11.10
2019-04-26T10:36:21.215Z,11.48
2019-04-26T10:41:33.663Z,12.03
2019-04-26T10:46:34.394Z,12.70
2019-04-26T10:51:45.330Z,13.53
2019-04-26T10:56:55.250Z,13.92
2019-04-26T11:02:00.781Z,14.50
2019-04-26T11:07:06.553Z,15.53
2019-04-26T11:12:16.248Z,15.46
2019-04-26T11:17:21.920Z,14.73
2019-04-26T11:22:29.354Z,15.57
2019-04-26T11:27:34.435Z,15.69
2019-04-26T11:32:40.220Z,14.60
2019-04-26T11:37:50.504Z,13.99
2019-04-26T11:42:54.141Z,14.78
2019-04-26T11:47:59.655Z,15.42
2019-04-26T11:53:06.142Z,15.31
2019-04-26T11:58:12.571Z,14.32
2019-04-26T12:03:21.151Z,13.53
2019-04-26T12:08:32.502Z,12.56
2019-04-26T12:13:38.121Z,12.48
2019-04-26T12:18:44.093Z,12.55
2019-04-26T12:23:51.278Z,13.14
2019-04-26T12:28:58.469Z,12.85
2019-04-26T12:34:04.121Z,14.15
2019-04-26T12:39:11.864Z,13.94
2019-04-26T12:44:17.384Z,13.24
2019-04-26T12:49:24.271Z,12.22
2019-04-26T12:54:30.374Z,12.53
2019-04-26T12:59:43.904Z,11.78
2019-04-26T13:04:44.528Z,11.61
2019-04-26T13:10:01.016Z,12.49
2019-04-26T13:15:32.430Z,12.21
2019-04-26T13:20:39.183Z,12.99
2019-04-26T13:25:44.781Z,13.21
2019-04-26T13:30:50.297Z,12.47
2019-04-26T13:36:02.855Z,11.82
2019-04-26T13:41:04.629Z,11.58
2019-04-26T13:46:19.003Z,11.75
2019-04-26T13:51:25.715Z,12.07
2019-04-26T13:56:32.099Z,11.91
2019-04-26T14:01:38.344Z,11.82
2019-04-26T14:06:43.836Z,11.22
2019-04-26T14:11:49.603Z,10.71
2019-04-26T14:16:55.764Z,10.67
2019-04-26T14:22:03.209Z,10.59
2019-04-26T14:27:15.300Z,10.52
2019-04-26T14:32:23.382Z,10.76
2019-04-26T14:37:29.524Z,10.64
2019-04-26T14:42:42.193Z,10.16
2019-04-26T14:47:47.654Z,10.13
2019-04-26T14:52:49.796Z,10.04
2019-04-26T14:57:56.864Z,10.09
2019-04-26T15:03:12.301Z,10.07
2019-04-26T15:08:18.021Z,10.10
2019-04-26T15:13:23.705Z,10.19
2019-04-26T15:18:33.348Z,9.95
2019-04-26T15:23:37.169Z,9.83
2019-04-26T15:28:43.679Z,9.61
2019-04-26T15:33:50.179Z,9.45
2019-04-26T15:38:56.475Z,9.39
2019-04-26T15:44:11.363Z,9.38
2019-04-26T15:49:29.796Z,9.32
2019-04-26T15:54:34.823Z,9.28
2019-04-26T15:59:40.264Z,9.35
2019-04-26T16:04:47.444Z,9.44
2019-04-26T16:09:53.854Z,9.52
2019-04-26T16:14:59.898Z,9.45
2019-04-26T16:20:07.321Z,9.46
2019-04-26T16:25:12.982Z,9.50
2019-04-26T16:30:28.401Z,9.61
2019-04-26T16:35:35.910Z,9.62
2019-04-26T16:40:47.562Z,9.67
2019-04-26T16:45:48.805Z,9.72
2019-04-26T16:50:54.512Z,9.77
2019-04-26T16:56:00.073Z,9.88
2019-04-26T17:01:10.123Z,9.95
2019-04-26T17:06:14.567Z,10.02
2019-04-26T17:11:20.445Z,10.05
2019-04-26T17:16:29.607Z,10.11
2019-04-26T17:21:38.159Z,10.20
2019-04-26T17:26:50.127Z,10.28
2019-04-26T17:31:55.813Z,10.31
2019-04-26T17:37:09.382Z,10.16
2019-04-26T17:42:10.955Z,10.06
2019-04-26T17:47:16.445Z,10.18
2019-04-26T17:52:25.016Z,10.16
2019-04-26T17:57:34.712Z,10.22
2019-04-26T18:02:42.168Z,10.21
2019-04-26T18:07:56.256Z,9.94
2019-04-26T18:12:54.118Z,9.63
2019-04-26T18:18:09.703Z,9.59
2019-04-26T18:23:18.574Z,9.73
2019-04-26T18:28:25.089Z,9.73
2019-04-26T18:33:32.877Z,9.82
2019-04-26T18:38:38.341Z,9.71
2019-04-26T18:43:43.743Z,9.59
2019-04-26T18:48:49.238Z,9.58
2019-04-26T18:54:05.026Z,9.47
2019-04-26T18:59:13.488Z,9.32
2019-04-26T19:04:19.025Z,9.22
2019-04-26T19:09:28.196Z,9.25
2019-04-26T19:14:49.586Z,9.24
2019-04-26T19:20:03.136Z,9.27
2019-04-26T19:25:18.937Z,9.19
2019-04-26T19:30:17.169Z,8.90
2019-04-26T19:35:22.890Z,8.80
2019-04-26T19:40:28.458Z,8.76
2019-04-26T19:45:46.137Z,8.57
2019-04-26T19:50:57.244Z,8.49
2019-04-26T19:56:11.167Z,8.65
2019-04-26T20:01:20.733Z,8.92
2019-04-26T20:06:26.718Z,8.79
2019-04-26T20:11:31.904Z,8.58
2019-04-26T20:16:40.751Z,8.55
2019-04-26T20:21:49.625Z,8.57
2019-04-26T20:26:54.381Z,8.51
2019-04-26T20:32:07.481Z,8.38
2019-04-26T20:37:16.159Z,8.47
2019-04-26T20:42:22.346Z,8.53
2019-04-26T20:47:27.996Z,8.76
2019-04-26T20:52:33.735Z,8.16
2019-04-26T20:57:42.057Z,7.98
2019-04-26T21:02:46.595Z,8.14
2019-04-26T21:07:52.403Z,7.95
2019-04-26T21:12:57.893Z,7.76
2019-04-26T21:18:04.246Z,7.63
2019-04-26T21:23:10.294Z,7.87
2019-04-26T21:28:29.072Z,7.92
2019-04-26T21:33:42.938Z,7.86
2019-04-26T21:38:53.014Z,7.87
2019-04-26T21:43:59.061Z,7.88
2019-04-26T21:49:04.524Z,8.02
2019-04-26T21:54:10.257Z,8.22
2019-04-26T21:59:16.055Z,8.40
2019-04-26T22:04:22.770Z,7.76
2019-04-26T22:09:48.238Z,7.28
2019-04-26T22:15:03.487Z,7.22
2019-04-26T22:20:19.156Z,7.22
2019-04-26T22:25:26.343Z,7.49
2019-04-26T22:30:33.132Z,7.63
2019-04-26T22:35:38.821Z,7.58
2019-04-26T22:40:44.221Z,7.71
2019-04-26T22:45:54.223Z,7.83
2019-04-26T22:50:59.897Z,7.80
2019-04-26T22:56:05.634Z,7.51
2019-04-26T23:01:11.337Z,7.38
2019-04-26T23:06:17.097Z,7.45
2019-04-26T23:11:23.165Z,7.69
2019-04-26T23:16:44.324Z,7.77
2019-04-26T23:21:52.870Z,7.70
2019-04-26T23:26:55.562Z,7.65
2019-04-26T23:32:01.063Z,7.63
2019-04-26T23:37:06.583Z,7.61
2019-04-26T23:42:12.218Z,7.61
2019-04-26T23:47:23.004Z,7.88
2019-04-26T23:52:25.968Z,7.61
2019-04-26T23:57:34.734Z,7.59
